createdAt,value
2023-03-29T00:01:42.322Z,-0.58
2023-03-29T00:04:10.208Z,-0.65
2023-03-29T00:06:38.492Z,-0.76
2023-03-29T00:09:06.092Z,-0.89
2023-03-29T00:11:33.026Z,-0.96
2023-03-29T00:13:59.738Z,-1.05
2023-03-29T00:16:26.814Z,-1.04
2023-03-29T00:18:53.494Z,-1.07
2023-03-29T00:21:20.686Z,-1.10
2023-03-29T00:23:47.357Z,-1.15
2023-03-29T00:26:14.003Z,-1.18
2023-03-29T00:28:40.826Z,-1.25
2023-03-29T00:31:10.994Z,-1.25
2023-03-29T00:33:37.788Z,-1.29
2023-03-29T00:36:06.080Z,-1.34
2023-03-29T00:38:33.167Z,-1.38
2023-03-29T00:41:00.420Z,-1.47
2023-03-29T00:43:27.623Z,-1.43
2023-03-29T00:45:54.465Z,-1.48
2023-03-29T00:48:24.424Z,-1.47
2023-03-29T00:50:54.561Z,-1.50
2023-03-29T00:53:26.223Z,-1.53
2023-03-29T00:56:12.322Z,-1.54
2023-03-29T00:58:54.808Z,-1.58
2023-03-29T01:01:28.407Z,-1.57
2023-03-29T01:04:04.418Z,-1.56
2023-03-29T01:06:34.309Z,-1.57
2023-03-29T01:09:04.610Z,-1.61
2023-03-29T01:11:36.529Z,-1.64
2023-03-29T01:14:06.026Z,-1.69
2023-03-29T01:16:34.246Z,-1.76
2023-03-29T01:19:02.325Z,-1.78
2023-03-29T01:21:33.281Z,-1.81
2023-03-29T01:24:09.232Z,-1.78
2023-03-29T01:27:23.609Z,-1.83
2023-03-29T01:29:57.756Z,-1.87
2023-03-29T01:32:37.472Z,-1.87
2023-03-29T01:35:10.508Z,-1.89
2023-03-29T01:37:41.277Z,-1.97
2023-03-29T01:40:08.568Z,-1.97
2023-03-29T01:42:42.309Z,-1.99
2023-03-29T01:45:10.743Z,-2.03
2023-03-29T01:47:48.252Z,-2.03
2023-03-29T01:50:19.361Z,-2.13
2023-03-29T01:53:06.654Z,-2.15
2023-03-29T01:55:36.060Z,-2.15
2023-03-29T01:58:04.638Z,-2.19
2023-03-29T02:00:31.964Z,-2.19
2023-03-29T02:03:01.451Z,-2.26
2023-03-29T02:05:30.660Z,-2.29
2023-03-29T02:08:00.268Z,-2.36
2023-03-29T02:10:27.453Z,-2.39
2023-03-29T02:12:54.162Z,-2.36
2023-03-29T02:15:21.063Z,-2.39
2023-03-29T02:17:49.367Z,-2.41
2023-03-29T02:20:27.380Z,-2.40
2023-03-29T02:23:18.640Z,-2.47
2023-03-29T02:25:45.927Z,-2.53
2023-03-29T02:28:13.016Z,-2.63
2023-03-29T02:31:04.709Z,-2.70
2023-03-29T02:33:37.008Z,-2.71
2023-03-29T02:36:10.349Z,-2.73
2023-03-29T02:38:39.060Z,-2.76
2023-03-29T02:41:07.021Z,-2.74
2023-03-29T02:43:34.716Z,-2.76
2023-03-29T02:46:02.086Z,-2.77
2023-03-29T02:48:29.555Z,-2.76
2023-03-29T02:50:58.600Z,-2.79
2023-03-29T02:53:43.734Z,-2.79
2023-03-29T02:56:10.642Z,-2.83
2023-03-29T02:58:37.333Z,-2.81
2023-03-29T03:01:06.796Z,-2.79
2023-03-29T03:03:33.617Z,-2.87
2023-03-29T03:06:01.683Z,-2.83
2023-03-29T03:08:28.611Z,-2.82
2023-03-29T03:10:55.448Z,-2.84
2023-03-29T03:13:22.143Z,-2.90
2023-03-29T03:15:49.492Z,-2.87
2023-03-29T03:18:16.743Z,-2.90
2023-03-29T03:20:46.914Z,-2.91
2023-03-29T03:23:13.726Z,-2.89
2023-03-29T03:25:40.454Z,-2.97
2023-03-29T03:28:07.615Z,-2.89
2023-03-29T03:30:34.675Z,-2.89
2023-03-29T03:33:01.513Z,-2.92
2023-03-29T03:35:28.517Z,-2.93
2023-03-29T03:37:55.353Z,-2.92
2023-03-29T03:40:22.614Z,-2.91
2023-03-29T03:42:49.409Z,-2.93
2023-03-29T03:45:16.631Z,-2.90
2023-03-29T03:47:43.433Z,-2.93
2023-03-29T03:50:11.617Z,-2.97
2023-03-29T03:52:38.440Z,-3.01
2023-03-29T03:55:05.472Z,-3.02
2023-03-29T03:57:33.104Z,-3.05
2023-03-29T04:00:00.020Z,-3.02
2023-03-29T04:02:27.500Z,-2.95
2023-03-29T04:04:54.833Z,-2.94
2023-03-29T04:07:21.619Z,-2.88
2023-03-29T04:09:48.857Z,-2.84
2023-03-29T04:12:15.755Z,-2.83
2023-03-29T04:14:42.740Z,-2.87
2023-03-29T04:17:09.454Z,-2.90
2023-03-29T04:19:36.204Z,-2.87
2023-03-29T04:22:02.977Z,-2.87
2023-03-29T04:24:29.654Z,-2.84
2023-03-29T04:26:56.463Z,-2.87
2023-03-29T04:29:23.143Z,-2.87
2023-03-29T04:31:49.977Z,-2.87
2023-03-29T04:34:16.962Z,-2.88
2023-03-29T04:36:43.709Z,-2.86
2023-03-29T04:39:10.642Z,-2.84
2023-03-29T04:41:37.374Z,-2.73
2023-03-29T04:44:04.169Z,-2.59
2023-03-29T04:46:32.369Z,-2.46
2023-03-29T04:48:59.303Z,-2.27
2023-03-29T04:51:26.186Z,-2.14
2023-03-29T04:53:53.031Z,-1.99
2023-03-29T04:56:19.832Z,-1.70
2023-03-29T04:58:46.639Z,-1.53
2023-03-29T05:01:13.444Z,-1.35
2023-03-29T05:03:40.239Z,-1.19
2023-03-29T05:06:09.370Z,-1.05
2023-03-29T05:08:40.886Z,-0.92
2023-03-29T05:11:11.733Z,-0.80
2023-03-29T05:13:38.550Z,-0.74
2023-03-29T05:16:06.863Z,-0.72
2023-03-29T05:18:33.814Z,-0.64
2023-03-29T05:21:00.898Z,-0.61
2023-03-29T05:23:28.014Z,-0.53
2023-03-29T05:25:54.811Z,-0.44
2023-03-29T05:28:21.795Z,-0.34
2023-03-29T05:30:59.548Z,-0.16
2023-03-29T05:33:26.734Z,0.01
2023-03-29T05:36:19.996Z,0.74
2023-03-29T05:38:47.340Z,1.19
2023-03-29T05:41:15.987Z,1.43
2023-03-29T05:43:42.910Z,1.62
2023-03-29T05:46:09.920Z,1.98
2023-03-29T05:48:36.689Z,2.30
2023-03-29T05:51:03.773Z,2.43
2023-03-29T05:53:30.711Z,2.73
2023-03-29T05:55:57.513Z,2.96
2023-03-29T05:58:26.392Z,3.17
2023-03-29T06:00:53.200Z,3.20
2023-03-29T06:03:23.807Z,3.27
2023-03-29T06:05:59.553Z,3.13
2023-03-29T06:08:27.619Z,2.98
2023-03-29T06:11:05.227Z,2.89
2023-03-29T06:13:34.102Z,2.72
2023-03-29T06:16:01.488Z,2.68
2023-03-29T06:18:28.534Z,2.65
2023-03-29T06:20:55.432Z,2.50
2023-03-29T06:23:23.275Z,2.79
2023-03-29T06:25:53.754Z,2.83
2023-03-29T06:28:20.551Z,2.96
2023-03-29T06:30:48.045Z,3.02
2023-03-29T06:33:15.546Z,3.12
2023-03-29T06:35:46.153Z,3.24
2023-03-29T06:38:13.807Z,3.32
2023-03-29T06:40:42.012Z,3.43
2023-03-29T06:43:09.186Z,3.59
2023-03-29T06:45:37.680Z,3.76
2023-03-29T06:48:05.910Z,3.89
2023-03-29T06:50:32.682Z,3.99
2023-03-29T06:52:59.990Z,4.13
2023-03-29T06:55:27.188Z,4.24
2023-03-29T06:57:54.677Z,4.37
2023-03-29T07:00:30.761Z,4.52
2023-03-29T07:02:58.734Z,4.51
2023-03-29T07:05:28.588Z,4.67
2023-03-29T07:08:13.873Z,4.75
2023-03-29T07:10:47.495Z,4.78
2023-03-29T07:13:15.535Z,4.81
2023-03-29T07:15:43.709Z,4.92
2023-03-29T07:18:12.513Z,4.95
2023-03-29T07:20:39.348Z,4.98
2023-03-29T07:23:06.931Z,5.00
2023-03-29T07:25:33.993Z,5.17
2023-03-29T07:28:01.522Z,5.24
2023-03-29T07:30:31.625Z,5.37
2023-03-29T07:32:59.771Z,5.53
2023-03-29T07:35:28.304Z,5.73
2023-03-29T07:37:55.855Z,5.81
2023-03-29T07:40:23.950Z,6.02
2023-03-29T07:42:54.104Z,6.33
2023-03-29T07:45:26.484Z,6.26
2023-03-29T07:48:00.661Z,6.37
2023-03-29T07:50:27.769Z,6.72
2023-03-29T07:52:54.786Z,6.81
2023-03-29T07:55:22.104Z,6.70
2023-03-29T07:57:49.928Z,6.60
2023-03-29T08:00:17.387Z,6.78
2023-03-29T08:02:45.702Z,7.02
2023-03-29T08:05:14.316Z,7.17
2023-03-29T08:07:45.159Z,7.24
2023-03-29T08:10:17.483Z,7.14
2023-03-29T08:12:45.928Z,6.60
2023-03-29T08:15:13.310Z,6.54
2023-03-29T08:17:40.836Z,6.31
2023-03-29T08:20:11.558Z,6.24
2023-03-29T08:22:38.898Z,6.31
2023-03-29T08:25:06.918Z,6.60
2023-03-29T08:27:34.249Z,7.05
2023-03-29T08:30:01.448Z,7.29
2023-03-29T08:32:28.301Z,7.46
2023-03-29T08:34:55.210Z,7.84
2023-03-29T08:37:23.980Z,8.05
2023-03-29T08:39:50.718Z,8.18
2023-03-29T08:42:34.026Z,8.89
2023-03-29T08:45:29.367Z,9.55
2023-03-29T08:48:14.285Z,9.34
2023-03-29T08:50:47.962Z,9.16
2023-03-29T08:53:21.603Z,9.06
2023-03-29T08:55:48.825Z,9.01
2023-03-29T08:58:19.229Z,9.73
2023-03-29T09:00:49.995Z,10.62
2023-03-29T09:03:22.909Z,11.22
2023-03-29T09:05:55.182Z,11.48
2023-03-29T09:08:22.686Z,11.26
2023-03-29T09:11:04.736Z,11.42
2023-03-29T09:13:49.995Z,11.70
2023-03-29T09:16:25.381Z,12.07
2023-03-29T09:19:13.767Z,12.52
2023-03-29T09:21:59.199Z,12.45
2023-03-29T09:24:40.044Z,12.35
2023-03-29T09:27:11.046Z,12.66
2023-03-29T09:29:56.608Z,12.96
2023-03-29T09:32:33.029Z,12.84
2023-03-29T09:35:24.586Z,13.47
2023-03-29T09:37:53.394Z,13.26
2023-03-29T09:40:22.433Z,12.85
2023-03-29T09:42:51.650Z,12.58
2023-03-29T09:45:18.831Z,12.63
2023-03-29T09:47:58.235Z,12.75
2023-03-29T09:50:36.874Z,13.29
2023-03-29T09:53:05.038Z,13.40
2023-03-29T09:55:34.081Z,13.52
2023-03-29T09:58:02.397Z,13.01
2023-03-29T10:00:30.091Z,12.06
2023-03-29T10:02:58.936Z,12.82
2023-03-29T10:05:36.728Z,12.93
2023-03-29T10:08:17.657Z,12.83
2023-03-29T10:10:47.116Z,13.02
2023-03-29T10:13:18.993Z,13.09
2023-03-29T10:16:07.523Z,12.40
2023-03-29T10:18:40.735Z,12.93
2023-03-29T10:21:12.101Z,13.03
2023-03-29T10:23:39.149Z,13.38
2023-03-29T10:26:07.959Z,13.62
2023-03-29T10:28:36.326Z,14.36
2023-03-29T10:31:05.937Z,14.82
2023-03-29T10:33:34.894Z,15.29
2023-03-29T10:36:05.094Z,14.99
2023-03-29T10:38:32.058Z,14.53
2023-03-29T10:41:09.974Z,14.77
2023-03-29T10:43:45.415Z,14.80
2023-03-29T10:46:21.271Z,15.15
2023-03-29T10:49:00.051Z,15.29
2023-03-29T10:51:32.696Z,16.04
2023-03-29T10:53:59.965Z,15.71
2023-03-29T10:56:33.047Z,15.18
2023-03-29T10:59:23.095Z,16.21
2023-03-29T11:01:56.057Z,17.43
2023-03-29T11:05:00.185Z,18.14
2023-03-29T11:07:52.581Z,17.77
2023-03-29T11:10:38.514Z,18.67
2023-03-29T11:13:25.122Z,18.77
2023-03-29T11:16:13.838Z,19.16
2023-03-29T11:19:04.623Z,20.64
2023-03-29T11:21:43.432Z,21.06
2023-03-29T11:24:25.647Z,22.17
2023-03-29T11:27:31.443Z,22.89
2023-03-29T11:30:01.107Z,23.20
2023-03-29T11:32:36.530Z,24.59
2023-03-29T11:35:06.601Z,24.63
2023-03-29T11:37:45.474Z,24.07
2023-03-29T11:40:45.317Z,23.32
2023-03-29T11:43:17.170Z,23.82
2023-03-29T11:45:50.630Z,23.59
2023-03-29T11:48:21.565Z,23.67
2023-03-29T11:50:52.145Z,24.09
2023-03-29T11:53:25.847Z,24.12
2023-03-29T11:55:54.146Z,24.11
2023-03-29T11:58:22.453Z,24.45
2023-03-29T12:00:55.448Z,25.00
2023-03-29T12:03:39.278Z,23.44
2023-03-29T12:06:13.234Z,23.71
2023-03-29T12:08:53.154Z,22.79
2023-03-29T12:11:21.208Z,21.56
2023-03-29T12:13:52.580Z,21.54
2023-03-29T12:16:37.160Z,22.23
2023-03-29T12:19:27.114Z,21.52
2023-03-29T12:21:56.098Z,22.52
2023-03-29T12:24:23.751Z,23.93
2023-03-29T12:27:03.065Z,24.95
2023-03-29T12:30:02.493Z,25.39
2023-03-29T12:32:53.624Z,24.84
2023-03-29T12:35:48.610Z,24.33
2023-03-29T12:38:24.208Z,22.86
2023-03-29T12:40:59.630Z,22.02
2023-03-29T12:43:37.572Z,21.22
2023-03-29T12:46:12.823Z,20.35
2023-03-29T12:48:41.628Z,20.95
2023-03-29T12:51:16.056Z,22.16
2023-03-29T12:53:45.480Z,23.42
2023-03-29T12:56:17.752Z,22.85
2023-03-29T12:59:11.656Z,23.80
2023-03-29T13:01:41.285Z,22.67
2023-03-29T13:04:19.785Z,22.74
2023-03-29T13:06:46.590Z,21.06
2023-03-29T13:09:29.984Z,21.40
2023-03-29T13:12:11.894Z,23.24
2023-03-29T13:14:43.076Z,23.61
2023-03-29T13:17:19.502Z,22.93
2023-03-29T13:20:11.158Z,22.79
2023-03-29T13:23:14.603Z,21.91
2023-03-29T13:26:21.444Z,20.13
2023-03-29T13:29:03.341Z,19.23
2023-03-29T13:31:48.553Z,18.94
2023-03-29T13:34:28.160Z,19.94
2023-03-29T13:37:20.914Z,22.13
2023-03-29T13:39:51.271Z,24.75
2023-03-29T13:42:24.103Z,26.22
2023-03-29T13:44:53.866Z,26.19
2023-03-29T13:47:33.086Z,24.26
2023-03-29T13:50:03.958Z,24.01
2023-03-29T13:52:34.480Z,23.68
2023-03-29T13:55:28.310Z,23.18
2023-03-29T13:58:13.452Z,23.62
2023-03-29T14:00:46.247Z,22.95
2023-03-29T14:03:30.009Z,23.48
2023-03-29T14:06:01.990Z,23.31
2023-03-29T14:08:37.816Z,22.05
2023-03-29T14:11:06.964Z,21.14
2023-03-29T14:13:35.242Z,21.10
2023-03-29T14:16:10.861Z,21.40
2023-03-29T14:18:40.126Z,21.16
2023-03-29T14:21:07.609Z,21.31
2023-03-29T14:23:36.773Z,20.44
2023-03-29T14:26:15.390Z,19.17
2023-03-29T14:28:48.967Z,17.99
2023-03-29T14:31:24.926Z,17.71
2023-03-29T14:33:56.646Z,16.94
2023-03-29T14:36:27.416Z,15.91
2023-03-29T14:38:59.440Z,15.26
2023-03-29T14:41:31.203Z,14.79
2023-03-29T14:43:58.487Z,14.51
2023-03-29T14:46:25.795Z,14.18
2023-03-29T14:48:54.348Z,13.47
2023-03-29T14:51:23.350Z,12.91
2023-03-29T14:53:50.666Z,12.51
2023-03-29T14:56:21.240Z,12.22
2023-03-29T14:58:47.946Z,12.14
2023-03-29T15:01:20.262Z,12.07
2023-03-29T15:03:55.104Z,12.08
2023-03-29T15:06:24.167Z,12.26
2023-03-29T15:09:01.994Z,12.17
2023-03-29T15:11:31.697Z,12.06
2023-03-29T15:14:04.456Z,12.03
2023-03-29T15:16:32.058Z,11.86
2023-03-29T15:19:01.577Z,11.98
2023-03-29T15:21:33.446Z,12.10
2023-03-29T15:24:04.834Z,11.85
2023-03-29T15:26:37.454Z,11.69
2023-03-29T15:29:17.492Z,11.52
2023-03-29T15:31:54.205Z,11.44
2023-03-29T15:34:29.676Z,11.54
2023-03-29T15:36:59.812Z,11.68
2023-03-29T15:39:27.696Z,11.77
2023-03-29T15:41:56.756Z,11.44
2023-03-29T15:44:29.066Z,11.24
2023-03-29T15:46:57.771Z,11.08
2023-03-29T15:49:25.085Z,10.92
2023-03-29T15:51:55.537Z,10.74
2023-03-29T15:54:24.397Z,10.49
2023-03-29T15:56:55.344Z,10.34
2023-03-29T15:59:22.834Z,10.19
2023-03-29T16:01:49.786Z,10.09
2023-03-29T16:04:21.067Z,10.03
2023-03-29T16:06:50.622Z,9.91
2023-03-29T16:09:17.418Z,9.79
2023-03-29T16:11:44.911Z,9.74
2023-03-29T16:14:17.993Z,9.76
2023-03-29T16:16:44.754Z,9.75
2023-03-29T16:19:11.523Z,9.78
2023-03-29T16:21:38.416Z,9.77
2023-03-29T16:24:07.240Z,9.75
2023-03-29T16:26:33.918Z,9.71
2023-03-29T16:29:00.716Z,9.71
2023-03-29T16:31:27.546Z,9.69
2023-03-29T16:33:54.312Z,9.65
2023-03-29T16:36:21.168Z,9.61
2023-03-29T16:38:47.936Z,9.47
2023-03-29T16:41:15.824Z,9.36
2023-03-29T16:43:42.666Z,9.29
2023-03-29T16:46:10.684Z,9.21
2023-03-29T16:48:37.970Z,9.13
2023-03-29T16:51:05.782Z,9.06
2023-03-29T16:53:32.808Z,9.01
2023-03-29T16:55:59.520Z,8.98
2023-03-29T16:58:27.128Z,8.97
2023-03-29T17:00:53.866Z,8.97
2023-03-29T17:03:21.145Z,8.93
2023-03-29T17:05:51.991Z,8.89
2023-03-29T17:08:20.311Z,8.87
2023-03-29T17:10:51.709Z,8.91
2023-03-29T17:13:18.522Z,8.91
2023-03-29T17:15:45.201Z,8.94
2023-03-29T17:18:12.368Z,8.95
2023-03-29T17:20:40.284Z,8.97
2023-03-29T17:23:08.784Z,9.00
2023-03-29T17:25:36.249Z,8.98
2023-03-29T17:28:03.674Z,8.95
2023-03-29T17:30:30.538Z,8.90
2023-03-29T17:32:57.224Z,8.88
2023-03-29T17:35:24.031Z,8.81
2023-03-29T17:37:50.768Z,8.80
2023-03-29T17:40:18.606Z,8.75
2023-03-29T17:42:52.534Z,8.69
2023-03-29T17:45:19.385Z,8.65
2023-03-29T17:47:46.183Z,8.60
2023-03-29T17:50:13.348Z,8.51
2023-03-29T17:52:40.086Z,8.43
2023-03-29T17:55:11.243Z,8.47
2023-03-29T17:57:38.876Z,8.46
2023-03-29T18:00:08.120Z,8.44
2023-03-29T18:02:35.122Z,8.35
2023-03-29T18:05:01.998Z,8.32
2023-03-29T18:07:29.063Z,8.25
2023-03-29T18:09:55.940Z,8.21
2023-03-29T18:12:25.964Z,8.15
2023-03-29T18:14:52.702Z,8.12
2023-03-29T18:17:19.542Z,8.08
2023-03-29T18:19:46.533Z,8.04
2023-03-29T18:22:13.328Z,8.03
2023-03-29T18:24:40.160Z,8.08
2023-03-29T18:27:06.866Z,8.14
2023-03-29T18:29:33.623Z,8.18
2023-03-29T18:32:03.017Z,8.22
2023-03-29T18:34:30.649Z,8.25
2023-03-29T18:36:57.710Z,8.30
2023-03-29T18:39:24.748Z,8.34
2023-03-29T18:41:52.005Z,8.39
2023-03-29T18:44:18.772Z,8.39
2023-03-29T18:46:45.494Z,8.36
2023-03-29T18:49:13.187Z,8.37
2023-03-29T18:51:42.075Z,8.38
2023-03-29T18:54:09.070Z,8.42
2023-03-29T18:56:36.013Z,8.42
2023-03-29T18:59:06.195Z,8.44
2023-03-29T19:01:33.215Z,8.41
2023-03-29T19:04:00.418Z,8.42
2023-03-29T19:06:27.368Z,8.40
2023-03-29T19:08:55.321Z,8.34
2023-03-29T19:11:23.003Z,8.33
2023-03-29T19:13:50.724Z,8.32
2023-03-29T19:16:17.547Z,8.28
2023-03-29T19:18:44.353Z,8.24
2023-03-29T19:21:11.380Z,8.22
2023-03-29T19:23:38.162Z,8.16
2023-03-29T19:26:05.855Z,8.15
2023-03-29T19:28:33.758Z,8.13
2023-03-29T19:31:01.901Z,8.13
2023-03-29T19:33:29.358Z,8.13
2023-03-29T19:35:56.697Z,8.11
2023-03-29T19:38:23.649Z,8.13
2023-03-29T19:40:51.603Z,8.16
2023-03-29T19:43:19.377Z,8.16
2023-03-29T19:45:47.702Z,8.15
2023-03-29T19:48:21.915Z,8.15
2023-03-29T19:50:49.591Z,8.11
2023-03-29T19:53:16.487Z,8.08
2023-03-29T19:55:45.134Z,8.06
2023-03-29T19:58:12.617Z,8.05
2023-03-29T20:00:39.442Z,7.99
2023-03-29T20:03:09.879Z,7.98
2023-03-29T20:05:38.426Z,8.00
2023-03-29T20:08:05.402Z,7.98
2023-03-29T20:10:32.718Z,7.96
2023-03-29T20:12:59.455Z,7.93
2023-03-29T20:15:26.306Z,7.93
2023-03-29T20:17:55.297Z,7.91
2023-03-29T20:20:24.678Z,7.89
2023-03-29T20:22:53.972Z,7.91
2023-03-29T20:25:21.294Z,7.90
2023-03-29T20:27:49.415Z,7.91
2023-03-29T20:30:16.438Z,7.92
2023-03-29T20:32:43.281Z,7.91
2023-03-29T20:35:11.647Z,7.92
2023-03-29T20:37:38.314Z,7.86
2023-03-29T20:40:06.645Z,7.86
2023-03-29T20:42:34.458Z,7.73
2023-03-29T20:45:01.866Z,7.77
2023-03-29T20:47:29.423Z,7.79
2023-03-29T20:49:56.793Z,7.76
2023-03-29T20:52:24.059Z,7.75
2023-03-29T20:54:50.764Z,7.73
2023-03-29T20:57:19.939Z,7.69
2023-03-29T20:59:49.149Z,7.64
2023-03-29T21:02:19.119Z,7.59
2023-03-29T21:04:49.765Z,7.56
2023-03-29T21:07:17.178Z,7.50
2023-03-29T21:09:44.015Z,7.51
2023-03-29T21:12:11.290Z,7.52
2023-03-29T21:14:38.718Z,7.51
2023-03-29T21:17:05.562Z,7.47
2023-03-29T21:19:32.406Z,7.46
2023-03-29T21:21:59.163Z,7.42
2023-03-29T21:24:25.995Z,7.38
2023-03-29T21:26:52.709Z,7.36
2023-03-29T21:29:19.430Z,7.36
2023-03-29T21:31:46.302Z,7.39
2023-03-29T21:34:13.151Z,7.39
2023-03-29T21:36:40.308Z,7.40
2023-03-29T21:39:07.013Z,7.37
2023-03-29T21:41:33.817Z,7.36
2023-03-29T21:44:00.683Z,7.34
2023-03-29T21:46:27.557Z,7.38
2023-03-29T21:48:54.268Z,7.30
2023-03-29T21:51:21.052Z,7.29
2023-03-29T21:53:47.755Z,7.30
2023-03-29T21:56:15.393Z,7.24
2023-03-29T21:58:42.428Z,7.19
2023-03-29T22:01:10.485Z,7.19
2023-03-29T22:03:37.844Z,7.13
2023-03-29T22:06:08.599Z,7.14
2023-03-29T22:08:38.721Z,7.07
2023-03-29T22:11:08.461Z,7.00
2023-03-29T22:13:35.318Z,6.93
2023-03-29T22:16:03.831Z,6.91
2023-03-29T22:18:42.685Z,6.90
2023-03-29T22:21:24.875Z,6.86
2023-03-29T22:23:53.516Z,6.81
2023-03-29T22:26:23.338Z,6.85
2023-03-29T22:28:51.088Z,6.88
2023-03-29T22:31:19.497Z,6.89
2023-03-29T22:33:46.622Z,6.87
2023-03-29T22:36:23.247Z,6.79
2023-03-29T22:38:50.760Z,6.75
2023-03-29T22:41:18.524Z,6.72
2023-03-29T22:43:45.299Z,6.71
2023-03-29T22:46:13.713Z,6.64
2023-03-29T22:48:40.711Z,6.61
2023-03-29T22:51:07.485Z,6.54
2023-03-29T22:53:34.473Z,6.53
2023-03-29T22:56:01.348Z,6.46
2023-03-29T22:58:29.429Z,6.39
2023-03-29T23:00:57.270Z,6.34
2023-03-29T23:03:24.066Z,6.25
2023-03-29T23:05:55.206Z,6.22
2023-03-29T23:08:23.439Z,6.17
2023-03-29T23:10:50.609Z,6.16
2023-03-29T23:13:25.837Z,6.20
2023-03-29T23:15:54.592Z,6.22
2023-03-29T23:18:23.532Z,6.25
2023-03-29T23:20:52.501Z,6.21
2023-03-29T23:23:20.123Z,6.16
2023-03-29T23:25:48.586Z,6.21
2023-03-29T23:28:16.963Z,6.18
2023-03-29T23:30:43.830Z,6.19
2023-03-29T23:33:10.645Z,6.20
2023-03-29T23:35:37.758Z,6.20
2023-03-29T23:38:05.804Z,6.23
2023-03-29T23:40:33.288Z,6.26
2023-03-29T23:43:00.252Z,6.24
2023-03-29T23:45:30.042Z,6.22
2023-03-29T23:47:57.372Z,6.22
2023-03-29T23:50:24.448Z,6.29
2023-03-29T23:52:51.723Z,6.35
2023-03-29T23:55:18.909Z,6.39
2023-03-29T23:57:45.713Z,6.46
